Impacts TAF Board INFO
IDs:

KJFK - New York/Kennedy Int, NY, US

Issued at 1930 UTC 09 Dec 2016
Updated at 2113 UTC 09 Dec 2016
Potential Impact None Slight Moderate High
Time2051Z 09/22Z 09/23Z 10/00Z 10/01Z 10/02Z 10/03Z 10/04Z 10/05Z 10/06Z 10/07Z 10/08Z 10/09Z 10/10Z
Type OBS PRVL PRVL PRVL PRVL PRVL PRVL PRVL PRVL PRVL PRVL PRVL PRVL PRVL
VIS 10 >6 >6 >6 >6 >6 >6 >6 >6 >6 >6 >6 >6 >6
CIG 65 50 50 -- -- -- -- -- -- -- -- -- -- --
Cover BKN BKN BKN SCT SCT SCT SCT SCT FEW FEW FEW SCT SCT SCT
FltCat VFR VFR VFR VFR VFR VFR VFR VFR VFR VFR VFR VFR VFR VFR
WX -- -- -- -- -- -- -- -- -- -- -- -- -- --
WDir 300 300 300 300 300 300 300 300 300 300 300 300 300 300
WSpd 26 22 22 16 16 16 16 16 12 12 12 12 12 12
WGst 32 30 30 24 24 24 24 24 20 20 20 -- -- --

Raw TAF
KJFK 091930Z 0920/1024 30022G30KT P6SM BKN050
  FM100000 30016G24KT P6SM SCT050
  FM100500 30012G20KT P6SM FEW040
  FM100800 30012KT P6SM SCT150
  FM101400 28012G20KT P6SM BKN050 BKN150


Raw METAR
KJFK 092051Z 30026G32KT 10SM BKN065 04/M12 A3016 RMK AO2 PK WND 30035/2038 SLP213 VIRGA NW-N T00391117 53021
KJFK 091951Z 30020G32KT 10SM BKN065 04/M12 A3012 RMK AO2 PK WND 28034/1941 SLP200 VIRGA NW-N T00441117
KJFK 091851Z 31022G28KT 10SM SCT060 06/M12 A3010 RMK AO2 PK WND 31034/1832 SLP191 T00561117

METAR Board
Radar Display
Forecast Discussion